Terminal Aerodrome Forecast
Issued by NWS

Home | Current Version | Previous Version | Graphics & Text | Print | Product List | Glossary On
Versions: 1 2 3 4 5 6 7 8 9 10 11 12 13 14 15 16 17
000
FTUS43 KTOP 290500
TAFFOE
TAF
KFOE 290520Z 2906/3006 17005KT P6SM VCTS SCT060CB BKN150
      TEMPO 2910/2914 4SM -TSRA SCT012 OVC040CB
     FM291400 20011KT P6SM VCTS SCT030CB BKN100=

USA.gov is the U.S. government's official web portal to all federal, state and local government web resources and services.